Terminal Aerodrome Forecast
Issued by NWS

Home | Current Version | Previous Version | Graphics & Text | Print | Product List | Glossary On
Versions: 1 2 3 4 5 6 7 8 9 10 11 12 13 14 15 16 17 18 19 20 21
000
FTUS43 KBIS 301300 AAA
TAFJMS
TAF AMD
KJMS 301324Z 3013/3112 18012KT P6SM OVC007
     FM301530 19011KT P6SM SCT150
     FM302000 32011KT P6SM SCT100=

USA.gov is the U.S. government's official web portal to all federal, state and local government web resources and services.